Time;durP1;ratioP1;P1;durP2;ratioP2;P2;SDS_P1;SDS_P2;PMS_P1;PMS_P2;Temp;Humidity;BMP_temperature;BMP_pressure;BME280_temperature;BME280_humidity;BME280_pressure;Samples;Min_cycle;Max_cycle;Signal;HPM_P1;HPM_P2
2021/06/18 00:00:00;;;;;;;47.50;27.88;;;18.70;99.90;;;;;;5072648;28;20090;-92
2021/06/18 00:02:27;;;;;;;46.78;26.80;;;18.70;99.90;;;;;;5078280;28;20140;-92
2021/06/18 00:04:53;;;;;;;36.17;24.95;;;18.70;99.90;;;;;;5075553;28;20055;-93
2021/06/18 00:07:19;;;;;;;30.13;20.45;;;18.70;99.90;;;;;;5076173;28;20047;-91
2021/06/18 00:09:45;;;;;;;28.52;17.90;;;18.70;99.90;;;;;;5077354;28;20040;-90
2021/06/18 00:12:12;;;;;;;29.80;17.75;;;18.80;99.90;;;;;;5076372;28;20467;-91
2021/06/18 00:14:38;;;;;;;28.38;16.75;;;18.80;99.90;;;;;;5056991;28;20106;-90
2021/06/18 00:17:04;;;;;;;25.88;16.63;;;18.80;99.90;;;;;;5067055;28;20036;-93
2021/06/18 00:19:30;;;;;;;23.92;17.63;;;18.80;99.90;;;;;;5074987;28;20048;-91
2021/06/18 00:21:56;;;;;;;24.67;16.80;;;18.70;99.90;;;;;;5076827;28;20090;-92
2021/06/18 00:24:22;;;;;;;28.42;16.90;;;18.80;99.90;;;;;;5104291;28;20074;-94
2021/06/18 00:26:48;;;;;;;25.17;17.58;;;18.70;99.90;;;;;;5079240;28;20097;-93
2021/06/18 00:29:14;;;;;;;28.05;17.83;;;18.70;99.90;;;;;;5059758;28;20047;-93
2021/06/18 00:31:40;;;;;;;27.15;18.35;;;18.70;99.90;;;;;;5076922;28;20036;-93
2021/06/18 00:34:05;;;;;;;34.80;18.70;;;18.60;99.90;;;;;;5093124;28;20567;-94
2021/06/18 00:36:31;;;;;;;31.05;19.20;;;18.60;99.90;;;;;;5093198;28;20093;-92
2021/06/18 00:38:57;;;;;;;31.15;20.50;;;18.60;99.90;;;;;;5069190;28;20093;-92
2021/06/18 00:41:23;;;;;;;31.58;20.15;;;18.60;99.90;;;;;;5082792;28;20049;-93
2021/06/18 00:43:55;;;;;;;31.48;19.83;;;18.50;99.90;;;;;;5092281;28;20501;-93
2021/06/18 00:46:21;;;;;;;30.63;21.15;;;18.50;99.90;;;;;;5075630;28;20048;-92
2021/06/18 00:48:48;;;;;;;31.98;21.50;;;18.50;99.90;;;;;;5109861;28;20043;-92
2021/06/18 00:51:15;;;;;;;32.70;21.90;;;18.40;99.90;;;;;;5093918;28;20394;-92
2021/06/18 00:53:41;;;;;;;32.60;21.73;;;18.40;99.90;;;;;;5042325;28;20055;-93
2021/06/18 00:56:08;;;;;;;35.13;22.73;;;18.40;99.90;;;;;;5093348;28;20066;-94
2021/06/18 00:58:33;;;;;;;37.38;23.38;;;18.40;99.90;;;;;;5078573;28;20098;-93
2021/06/18 01:00:59;;;;;;;39.15;25.45;;;18.30;99.90;;;;;;5078462;28;20451;-92
2021/06/18 01:03:25;;;;;;;35.83;25.10;;;18.30;99.90;;;;;;5076201;28;20044;-92
2021/06/18 01:05:52;;;;;;;38.15;25.33;;;18.30;99.90;;;;;;5075240;28;20055;-93
2021/06/18 01:08:25;;;;;;;37.85;25.50;;;18.20;99.90;;;;;;5059673;28;20052;-93
2021/06/18 01:11:13;;;;;;;47.53;26.48;;;18.20;99.90;;;;;;5073052;28;20056;-94
2021/06/18 01:13:51;;;;;;;41.88;26.13;;;18.10;99.90;;;;;;5102104;28;20078;-93
2021/06/18 01:16:46;;;;;;;44.93;26.93;;;18.10;99.90;;;;;;5085049;28;20214;-93
2021/06/18 01:19:27;;;;;;;43.70;26.83;;;18.00;99.90;;;;;;5090131;28;20059;-93
2021/06/18 01:21:56;;;;;;;34.67;24.08;;;18.00;99.90;;;;;;5110103;28;20032;-92
2021/06/18 01:24:25;;;;;;;40.90;26.43;;;18.00;99.90;;;;;;5075821;28;20045;-93
2021/06/18 01:27:21;;;;;;;39.85;25.55;;;17.90;99.90;;;;;;5089108;28;20052;-93
2021/06/18 01:30:09;;;;;;;33.35;23.80;;;17.80;99.90;;;;;;5108076;28;20163;-93
2021/06/18 01:32:43;;;;;;;46.63;28.40;;;17.80;99.90;;;;;;5092299;28;20471;-94
2021/06/18 01:35:15;;;;;;;40.10;27.67;;;17.80;99.90;;;;;;5084670;28;20499;-93
2021/06/18 01:37:46;;;;;;;35.42;23.15;;;17.80;99.90;;;;;;5087622;28;20392;-92
2021/06/18 01:40:13;;;;;;;51.90;29.98;;;17.80;99.90;;;;;;5078640;28;20044;-94
2021/06/18 01:42:42;;;;;;;48.47;30.90;;;17.80;99.90;;;;;;5091756;28;20483;-94
2021/06/18 01:45:10;;;;;;;47.80;29.20;;;17.80;99.90;;;;;;5086074;28;20044;-93
2021/06/18 01:47:38;;;;;;;47.78;31.50;;;17.80;99.90;;;;;;5099646;28;20048;-93
2021/06/18 01:50:07;;;;;;;51.95;33.47;;;17.80;99.90;;;;;;5073603;28;20040;-93
2021/06/18 01:52:34;;;;;;;45.28;30.73;;;17.80;99.90;;;;;;5077934;28;20045;-92
2021/06/18 01:55:03;;;;;;;45.30;30.25;;;17.80;99.90;;;;;;5087844;28;20040;-92
2021/06/18 01:57:30;;;;;;;47.42;29.35;;;17.80;99.90;;;;;;5082190;28;20040;-91
2021/06/18 01:59:58;;;;;;;56.67;32.67;;;17.80;99.90;;;;;;5088107;28;20097;-90
2021/06/18 02:02:28;;;;;;;52.80;33.72;;;17.80;99.90;;;;;;5084380;28;20036;-92
2021/06/18 02:04:55;;;;;;;49.60;34.20;;;17.70;99.90;;;;;;5077094;28;20048;-91
2021/06/18 02:07:25;;;;;;;52.13;31.65;;;17.70;99.90;;;;;;5074356;28;20101;-91
2021/06/18 02:09:51;;;;;;;45.63;28.83;;;17.60;99.90;;;;;;5091884;28;20115;-91
2021/06/18 02:12:17;;;;;;;46.17;31.38;;;17.50;99.90;;;;;;5058624;28;20128;-92
2021/06/18 02:14:44;;;;;;;54.53;33.28;;;17.50;99.90;;;;;;5078381;28;20040;-91
2021/06/18 02:17:11;;;;;;;57.13;35.13;;;17.60;99.90;;;;;;5074487;28;20047;-93
2021/06/18 02:19:39;;;;;;;48.97;33.47;;;17.60;99.90;;;;;;5090650;28;20381;-92
2021/06/18 02:22:11;;;;;;;44.22;29.17;;;17.70;99.90;;;;;;5079370;28;20040;-91
2021/06/18 02:24:41;;;;;;;54.20;32.83;;;17.70;99.90;;;;;;5074450;28;20036;-92
2021/06/18 02:27:07;;;;;;;57.35;34.40;;;17.70;99.90;;;;;;5080059;28;20098;-91
2021/06/18 02:29:34;;;;;;;49.35;31.75;;;17.70;99.90;;;;;;5084706;28;20074;-91
2021/06/18 02:32:03;;;;;;;50.08;33.53;;;17.70;99.90;;;;;;5081110;28;20380;-92
2021/06/18 02:34:29;;;;;;;50.42;32.67;;;17.70;99.90;;;;;;5076160;28;20044;-92
2021/06/18 02:36:54;;;;;;;54.97;35.35;;;17.80;99.90;;;;;;5108633;28;20387;-92
2021/06/18 02:39:20;;;;;;;57.97;34.08;;;17.80;99.90;;;;;;5060085;28;20097;-91
2021/06/18 02:41:46;;;;;;;53.50;33.83;;;17.80;99.90;;;;;;5086978;28;20044;-92
2021/06/18 02:44:12;;;;;;;51.90;33.75;;;17.80;99.90;;;;;;5081622;28;20036;-93
2021/06/18 02:47:06;;;;;;;53.40;33.28;;;17.80;99.90;;;;;;5072696;28;20226;-92
2021/06/18 02:49:44;;;;;;;52.33;33.63;;;17.80;99.90;;;;;;5085438;28;20560;-92
2021/06/18 02:52:31;;;;;;;58.55;33.53;;;17.80;99.90;;;;;;5090776;28;20044;-92
2021/06/18 02:55:24;;;;;;;52.00;31.88;;;17.80;99.90;;;;;;5093882;28;20046;-93
2021/06/18 02:58:42;;;;;;;44.88;30.35;;;17.80;99.90;;;;;;5080704;28;20476;-93
2021/06/18 03:01:09;;;;;;;48.67;29.10;;;17.80;99.90;;;;;;5079125;28;20055;-92
2021/06/18 03:03:41;;;;;;;43.00;27.80;;;17.80;99.90;;;;;;5084589;28;20043;-93
2021/06/18 03:06:08;;;;;;;50.35;29.67;;;17.70;99.90;;;;;;5061273;28;20067;-93
2021/06/18 03:08:42;;;;;;;40.33;28.58;;;17.70;99.90;;;;;;5086861;28;20848;-92
2021/06/18 03:11:10;;;;;;;40.28;25.52;;;17.70;99.90;;;;;;5086392;28;20044;-92
2021/06/18 03:13:46;;;;;;;34.55;23.90;;;17.80;99.90;;;;;;5087862;28;20097;-93
2021/06/18 03:16:13;;;;;;;38.33;25.42;;;17.80;99.90;;;;;;5072886;28;20494;-92
2021/06/18 03:18:43;;;;;;;33.85;23.98;;;17.90;99.90;;;;;;5087087;28;20488;-92
2021/06/18 03:21:10;;;;;;;;;;;17.80;99.90;;;;;;5086831;28;20040;-91
2021/06/18 03:23:37;;;;;;;30.35;22.00;;;17.90;99.90;;;;;;5097369;28;20066;-92
2021/06/18 03:26:04;;;;;;;29.60;20.23;;;18.00;99.90;;;;;;5058038;28;20098;-91
2021/06/18 03:28:32;;;;;;;31.60;22.02;;;18.10;99.90;;;;;;5071182;28;20438;-93
2021/06/18 03:31:01;;;;;;;39.38;22.80;;;18.20;99.90;;;;;;5106920;28;20059;-93
2021/06/18 03:33:28;;;;;;;37.30;23.33;;;18.20;99.90;;;;;;5091245;28;20495;-92
2021/06/18 03:35:55;;;;;;;35.00;22.48;;;18.30;99.90;;;;;;5077320;28;20044;-91
2021/06/18 03:38:21;;;;;;;29.50;21.23;;;18.30;99.90;;;;;;5088628;28;20089;-95
2021/06/18 03:40:48;;;;;;;34.78;22.38;;;18.40;99.90;;;;;;5057379;28;20056;-90
2021/06/18 03:43:15;;;;;;;30.33;22.83;;;18.40;99.90;;;;;;5073704;28;20056;-91
2021/06/18 03:45:48;;;;;;;40.42;23.30;;;18.40;99.90;;;;;;5089741;28;20378;-92
2021/06/18 03:48:15;;;;;;;30.58;21.20;;;18.40;99.90;;;;;;5077184;28;21013;-90
2021/06/18 03:50:42;;;;;;;35.40;23.35;;;18.40;99.90;;;;;;5091132;28;20231;-91
2021/06/18 03:53:09;;;;;;;35.53;23.67;;;18.40;99.90;;;;;;5085298;28;20093;-91
2021/06/18 03:55:37;;;;;;;35.33;23.13;;;18.40;99.90;;;;;;5083841;28;20040;-90
2021/06/18 03:58:05;;;;;;;37.92;23.17;;;18.40;99.90;;;;;;5051389;28;20062;-92
2021/06/18 04:00:41;;;;;;;32.72;23.10;;;18.40;99.90;;;;;;5085185;28;20047;-88
2021/06/18 04:03:08;;;;;;;39.72;23.67;;;18.40;99.90;;;;;;5082106;28;20054;-91
2021/06/18 04:05:37;;;;;;;32.13;22.83;;;18.40;99.90;;;;;;5087456;28;20067;-93
2021/06/18 04:08:03;;;;;;;34.95;24.15;;;18.40;99.90;;;;;;5085920;28;20475;-91
2021/06/18 04:10:30;;;;;;;34.08;23.10;;;18.40;99.90;;;;;;5055436;28;20048;-91
2021/06/18 04:12:56;;;;;;;29.10;22.13;;;18.40;99.90;;;;;;5076471;28;20472;-91
2021/06/18 04:15:23;;;;;;;31.40;22.13;;;18.50;99.90;;;;;;5086860;28;20036;-94
2021/06/18 04:17:52;;;;;;;32.47;22.15;;;18.40;99.90;;;;;;5076328;28;20042;-90
2021/06/18 04:20:22;;;;;;;34.33;22.05;;;18.40;99.90;;;;;;5085564;28;20036;-91
2021/06/18 04:22:50;;;;;;;31.05;20.60;;;18.40;99.90;;;;;;5073015;28;20120;-92
2021/06/18 04:25:16;;;;;;;35.28;22.42;;;18.50;99.90;;;;;;5074574;28;20055;-92
2021/06/18 04:27:42;;;;;;;39.75;21.92;;;18.50;99.90;;;;;;5077225;28;20676;-91
2021/06/18 04:30:10;;;;;;;31.33;21.58;;;18.50;99.90;;;;;;5093444;28;20048;-90
2021/06/18 04:32:37;;;;;;;35.45;22.17;;;18.50;99.90;;;;;;5075655;28;20047;-92
2021/06/18 04:35:07;;;;;;;35.03;23.02;;;18.50;99.90;;;;;;5088438;28;20048;-91
2021/06/18 04:37:34;;;;;;;33.03;21.98;;;18.50;99.90;;;;;;5074414;28;20067;-92
2021/06/18 04:40:00;;;;;;;37.58;22.98;;;18.60;99.90;;;;;;5092605;28;20040;-93
2021/06/18 04:42:26;;;;;;;35.08;23.08;;;18.60;99.90;;;;;;5048889;28;20509;-96
2021/06/18 04:44:52;;;;;;;29.65;22.15;;;18.60;99.90;;;;;;5087649;28;20124;-93
2021/06/18 04:47:19;;;;;;;35.50;23.70;;;18.70;99.90;;;;;;5045139;28;20072;-92
2021/06/18 04:49:47;;;;;;;35.03;23.60;;;18.70;99.90;;;;;;5075251;28;20055;-91
2021/06/18 04:52:13;;;;;;;41.05;23.52;;;18.70;99.90;;;;;;5076681;28;20048;-93
2021/06/18 04:54:39;;;;;;;32.67;23.55;;;18.80;99.90;;;;;;5062610;28;20051;-93
2021/06/18 04:57:05;;;;;;;37.30;22.80;;;18.80;99.90;;;;;;5106398;28;20040;-92
2021/06/18 04:59:37;;;;;;;40.25;24.25;;;18.80;99.90;;;;;;5056025;28;20113;-92
2021/06/18 05:02:03;;;;;;;33.92;23.15;;;18.80;99.90;;;;;;5088473;28;20049;-91
2021/06/18 05:04:30;;;;;;;37.63;24.67;;;18.80;99.90;;;;;;5099559;28;20098;-91
2021/06/18 05:06:56;;;;;;;37.42;23.58;;;18.90;99.90;;;;;;5075276;28;20052;-91
2021/06/18 05:09:22;;;;;;;42.88;24.58;;;18.90;99.90;;;;;;5092467;28;20051;-91
2021/06/18 05:11:48;;;;;;;36.85;25.25;;;19.00;99.90;;;;;;5066259;28;20067;-92
2021/06/18 05:14:14;;;;;;;35.35;24.42;;;19.00;99.90;;;;;;5074156;28;20443;-92
2021/06/18 05:16:40;;;;;;;41.20;26.48;;;19.00;99.90;;;;;;5076898;28;20058;-91
2021/06/18 05:19:07;;;;;;;39.08;25.67;;;19.00;99.90;;;;;;5073780;28;20123;-93
2021/06/18 05:21:33;;;;;;;40.17;25.40;;;19.00;99.90;;;;;;5086730;28;20045;-94
2021/06/18 05:23:59;;;;;;;35.17;25.88;;;19.00;99.90;;;;;;5086087;28;20048;-93
2021/06/18 05:26:28;;;;;;;37.00;25.05;;;19.10;99.90;;;;;;5070546;28;20066;-93
2021/06/18 05:28:54;;;;;;;32.43;23.73;;;19.00;99.90;;;;;;5080600;28;20051;-93
2021/06/18 05:31:20;;;;;;;32.72;22.90;;;19.00;99.90;;;;;;5088986;28;20294;-94
2021/06/18 05:33:45;;;;;;;37.15;24.10;;;19.00;99.90;;;;;;5092681;28;20040;-93
2021/06/18 05:36:11;;;;;;;32.20;21.73;;;19.10;99.90;;;;;;5094999;28;20048;-93
2021/06/18 05:38:37;;;;;;;29.92;20.30;;;19.10;99.90;;;;;;5075670;28;20052;-93
2021/06/18 05:41:04;;;;;;;26.23;18.58;;;19.20;99.90;;;;;;5075429;28;20044;-92
2021/06/18 05:43:30;;;;;;;24.98;17.17;;;19.50;99.90;;;;;;5054649;28;20040;-91
2021/06/18 05:45:55;;;;;;;26.85;17.15;;;19.60;99.90;;;;;;5046757;28;20197;-92
2021/06/18 05:48:21;;;;;;;22.10;16.48;;;19.70;99.90;;;;;;5069845;28;20043;-93
2021/06/18 05:50:48;;;;;;;18.80;14.20;;;19.80;99.90;;;;;;5064821;28;20059;-93
2021/06/18 05:53:13;;;;;;;16.55;12.90;;;19.90;99.90;;;;;;5076440;28;20048;-93
2021/06/18 05:55:39;;;;;;;19.63;13.77;;;20.00;99.90;;;;;;5075796;28;20234;-92
2021/06/18 05:58:06;;;;;;;20.05;13.57;;;20.00;99.90;;;;;;5066131;28;20055;-93
2021/06/18 06:00:32;;;;;;;17.45;12.57;;;20.10;99.90;;;;;;5077735;28;20126;-94
2021/06/18 06:02:59;;;;;;;20.15;13.02;;;20.10;99.90;;;;;;5085078;28;20040;-92
2021/06/18 06:05:25;;;;;;;15.98;10.77;;;20.30;99.90;;;;;;5075067;28;20384;-90
2021/06/18 06:07:51;;;;;;;20.52;10.43;;;20.20;99.90;;;;;;5057242;28;20040;-90
2021/06/18 06:10:16;;;;;;;16.67;10.90;;;20.10;99.90;;;;;;5070493;28;20507;-91
2021/06/18 06:12:42;;;;;;;12.35;8.80;;;20.20;99.90;;;;;;5085626;28;20468;-92
2021/06/18 06:15:09;;;;;;;12.60;9.20;;;20.10;99.90;;;;;;5063873;28;20038;-93
2021/06/18 06:17:35;;;;;;;12.73;8.27;;;20.10;99.90;;;;;;5074243;28;20044;-93
2021/06/18 06:20:03;;;;;;;10.05;8.00;;;20.00;99.90;;;;;;5081507;28;20072;-89
2021/06/18 06:22:29;;;;;;;11.38;8.30;;;20.00;99.90;;;;;;5086311;28;20098;-91
2021/06/18 06:24:55;;;;;;;14.70;7.95;;;20.00;99.90;;;;;;5090275;28;20048;-91
2021/06/18 06:27:21;;;;;;;10.60;7.50;;;20.00;99.90;;;;;;5077956;28;20041;-91
2021/06/18 06:29:46;;;;;;;10.35;8.32;;;20.00;99.90;;;;;;5090286;28;20090;-92
2021/06/18 06:32:12;;;;;;;10.73;8.18;;;19.90;99.90;;;;;;5057528;28;20044;-91
2021/06/18 06:34:38;;;;;;;9.32;8.43;;;19.90;99.90;;;;;;5056860;28;20056;-93
2021/06/18 06:37:04;;;;;;;13.57;8.48;;;20.10;99.90;;;;;;5080265;28;20040;-91
2021/06/18 06:39:30;;;;;;;15.27;9.18;;;20.10;99.90;;;;;;5089846;28;20392;-93
2021/06/18 06:41:55;;;;;;;11.07;9.07;;;20.00;99.90;;;;;;5074166;28;20048;-90
2021/06/18 06:44:21;;;;;;;15.00;9.40;;;19.90;99.90;;;;;;5084009;28;20086;-92
2021/06/18 06:46:47;;;;;;;11.60;9.65;;;19.80;99.90;;;;;;5057071;28;20056;-91
2021/06/18 06:49:13;;;;;;;10.60;8.50;;;19.80;99.90;;;;;;5080526;28;20052;-91
2021/06/18 06:51:39;;;;;;;10.73;9.68;;;19.70;99.90;;;;;;5087124;28;20047;-91
2021/06/18 06:54:05;;;;;;;13.15;9.48;;;19.60;99.90;;;;;;5057040;28;20548;-90
2021/06/18 06:56:32;;;;;;;13.60;10.57;;;19.50;99.90;;;;;;5073378;28;20124;-91
2021/06/18 06:58:58;;;;;;;12.35;10.43;;;19.40;99.90;;;;;;5077932;28;20036;-90
2021/06/18 07:01:24;;;;;;;11.88;9.80;;;19.30;99.90;;;;;;5082427;28;20139;-90
2021/06/18 07:03:50;;;;;;;11.27;10.13;;;19.30;99.90;;;;;;5055893;28;20093;-90
2021/06/18 07:06:16;;;;;;;16.38;10.10;;;19.40;99.90;;;;;;5089007;28;20131;-88
2021/06/18 07:08:42;;;;;;;10.32;9.07;;;19.40;99.90;;;;;;5104942;28;20040;-89
2021/06/18 07:11:07;;;;;;;12.05;9.10;;;19.50;99.90;;;;;;5084953;28;20447;-88
2021/06/18 07:13:33;;;;;;;9.90;8.52;;;19.60;99.90;;;;;;5076172;28;20040;-91
2021/06/18 07:15:59;;;;;;;14.70;9.73;;;19.70;99.90;;;;;;5051865;28;20047;-89
2021/06/18 07:18:25;;;;;;;10.98;9.88;;;19.70;99.90;;;;;;5068981;28;20126;-90
2021/06/18 07:20:52;;;;;;;11.05;9.93;;;19.80;99.90;;;;;;5087740;28;20044;-89
2021/06/18 07:23:18;;;;;;;12.02;9.75;;;20.00;99.90;;;;;;5077570;28;20058;-90
2021/06/18 07:25:44;;;;;;;13.32;8.38;;;19.90;99.90;;;;;;5089777;28;20069;-90
2021/06/18 07:28:11;;;;;;;13.70;9.35;;;20.00;99.90;;;;;;5090055;28;20059;-90
2021/06/18 07:30:38;;;;;;;9.63;7.82;;;20.00;99.90;;;;;;5089160;28;20437;-90
2021/06/18 07:33:04;;;;;;;13.63;9.15;;;19.90;99.90;;;;;;5089700;28;20040;-89
2021/06/18 07:35:30;;;;;;;10.80;8.57;;;19.90;99.90;;;;;;5075195;28;20089;-86
2021/06/18 07:37:57;;;;;;;9.60;8.57;;;20.00;99.90;;;;;;5057536;28;20074;-85
2021/06/18 07:40:23;;;;;;;11.57;9.60;;;19.90;99.90;;;;;;5073965;28;20419;-87
2021/06/18 07:42:49;;;;;;;11.07;9.80;;;19.80;99.90;;;;;;5087753;28;20040;-86
2021/06/18 07:45:16;;;;;;;11.40;9.68;;;19.80;99.90;;;;;;5096093;28;20080;-88
2021/06/18 07:47:43;;;;;;;10.32;9.43;;;19.90;99.90;;;;;;5084286;28;20523;-86
2021/06/18 07:50:13;;;;;;;12.07;9.32;;;19.90;99.90;;;;;;5095985;28;20039;-85
2021/06/18 07:52:39;;;;;;;9.40;8.52;;;19.90;99.90;;;;;;5104934;28;20991;-88
2021/06/18 07:55:08;;;;;;;9.15;7.78;;;20.00;99.90;;;;;;5097081;28;20032;-86
2021/06/18 07:57:34;;;;;;;7.95;7.18;;;20.00;99.90;;;;;;5092837;28;20032;-86
2021/06/18 08:00:00;;;;;;;9.25;7.35;;;20.00;99.90;;;;;;5102877;28;20048;-85
2021/06/18 08:02:26;;;;;;;7.53;6.93;;;20.00;99.90;;;;;;5106822;27;20430;-87
2021/06/18 08:04:52;;;;;;;7.60;6.80;;;20.00;99.90;;;;;;5092581;28;20036;-87
2021/06/18 08:07:19;;;;;;;9.75;6.57;;;20.00;99.90;;;;;;5083486;28;20115;-86
2021/06/18 08:09:46;;;;;;;7.72;6.90;;;20.10;99.90;;;;;;5105716;28;20089;-87
2021/06/18 08:12:12;;;;;;;7.28;6.60;;;20.20;99.90;;;;;;5107639;28;20105;-88
2021/06/18 08:14:38;;;;;;;7.07;6.40;;;20.20;99.90;;;;;;5071889;28;20475;-91
2021/06/18 08:17:03;;;;;;;8.43;6.43;;;20.30;99.90;;;;;;5087985;28;20488;-88
2021/06/18 08:19:29;;;;;;;6.47;5.85;;;20.30;99.90;;;;;;5099394;28;20421;-87
2021/06/18 08:21:55;;;;;;;9.55;6.28;;;20.40;99.90;;;;;;5077962;28;20040;-87
2021/06/18 08:24:21;;;;;;;6.22;5.63;;;20.40;99.90;;;;;;5076999;28;20395;-87
2021/06/18 08:26:49;;;;;;;8.70;6.18;;;20.50;99.90;;;;;;5093612;28;20139;-87
2021/06/18 08:29:15;;;;;;;6.32;5.72;;;20.60;99.90;;;;;;5100212;28;20745;-87
2021/06/18 08:31:42;;;;;;;10.48;5.43;;;20.70;99.90;;;;;;5091255;28;20036;-91
2021/06/18 08:34:09;;;;;;;7.13;5.43;;;20.80;99.90;;;;;;5071665;28;20063;-87
2021/06/18 08:36:39;;;;;;;;;;;21.00;99.90;;;;;;5091609;28;20044;-87
2021/06/18 08:39:06;;;;;;;7.22;6.10;;;21.10;99.90;;;;;;5075146;28;19920;-87
2021/06/18 08:41:32;;;;;;;8.23;6.70;;;21.30;99.90;;;;;;5078944;28;20036;-87
2021/06/18 08:43:58;;;;;;;5.82;5.22;;;21.40;99.90;;;;;;5110751;28;20121;-85
2021/06/18 08:46:24;;;;;;;6.60;5.45;;;21.60;99.90;;;;;;5104247;27;20079;-85
2021/06/18 08:48:50;;;;;;;6.88;6.13;;;21.80;99.90;;;;;;5071841;28;20063;-90
2021/06/18 08:51:16;;;;;;;5.68;5.07;;;22.00;99.90;;;;;;5080716;28;20086;-89
2021/06/18 08:53:42;;;;;;;6.55;4.93;;;22.20;99.90;;;;;;5088616;28;20044;-92
2021/06/18 08:56:09;;;;;;;6.95;5.40;;;22.30;99.90;;;;;;5073145;28;20052;-89
2021/06/18 08:58:36;;;;;;;6.75;5.07;;;22.50;99.90;;;;;;5078290;28;20044;-89
2021/06/18 09:01:03;;;;;;;6.45;5.47;;;22.70;99.90;;;;;;5076304;28;20035;-89
2021/06/18 09:03:34;;;;;;;5.28;4.72;;;22.80;99.90;;;;;;5091976;28;20067;-90
2021/06/18 09:06:00;;;;;;;10.50;5.18;;;22.90;99.90;;;;;;5089709;28;20883;-90
2021/06/18 09:08:26;;;;;;;7.55;5.53;;;23.10;99.90;;;;;;5072634;28;20081;-92
2021/06/18 09:10:52;;;;;;;6.40;4.60;;;23.20;99.90;;;;;;5072975;28;20059;-90
2021/06/18 09:13:19;;;;;;;6.65;4.00;;;23.20;99.90;;;;;;5075617;28;20044;-90
2021/06/18 09:15:46;;;;;;;4.80;4.22;;;23.40;99.90;;;;;;5077584;28;20549;-92
2021/06/18 09:18:35;;;;;;;5.13;3.45;;;23.70;99.90;;;;;;5091986;28;20495;-91
2021/06/18 09:21:10;;;;;;;3.53;3.25;;;24.20;99.90;;;;;;5088106;28;20043;-91
2021/06/18 09:23:43;;;;;;;3.42;3.13;;;24.60;99.90;;;;;;5086814;28;20044;-91
2021/06/18 09:26:25;;;;;;;5.57;3.10;;;25.00;99.90;;;;;;5088119;28;20086;-89
2021/06/18 09:29:09;;;;;;;3.50;3.20;;;25.10;99.90;;;;;;5086668;28;20044;-90
2021/06/18 09:31:37;;;;;;;3.20;2.90;;;25.20;99.90;;;;;;5091734;28;20040;-90
2021/06/18 09:34:05;;;;;;;2.90;2.67;;;25.30;99.90;;;;;;5079017;28;20041;-90
2021/06/18 09:36:31;;;;;;;6.82;2.80;;;25.50;99.90;;;;;;5106150;28;20044;-89
2021/06/18 09:38:59;;;;;;;2.97;2.78;;;25.50;99.90;;;;;;5091783;28;20111;-90
2021/06/18 09:41:41;;;;;;;3.10;2.67;;;25.60;99.90;;;;;;5088533;28;20162;-89
2021/06/18 09:44:07;;;;;;;4.22;2.92;;;25.70;99.90;;;;;;5097520;28;20079;-90
2021/06/18 09:46:52;;;;;;;3.70;2.40;;;25.80;99.90;;;;;;5088085;28;20496;-91
2021/06/18 09:49:38;;;;;;;5.65;2.50;;;25.90;99.90;;;;;;5088908;28;20123;-90
2021/06/18 09:52:09;;;;;;;7.97;2.67;;;26.00;99.90;;;;;;5093608;28;20758;-91
2021/06/18 09:54:42;;;;;;;6.30;2.72;;;26.10;99.90;;;;;;5091011;28;20440;-90
2021/06/18 09:57:17;;;;;;;3.85;2.67;;;26.20;99.90;;;;;;5106767;28;20067;-89
2021/06/18 09:59:52;;;;;;;2.85;2.30;;;26.30;99.90;;;;;;5090731;28;20032;-90
2021/06/18 10:02:21;;;;;;;2.75;2.55;;;26.30;99.90;;;;;;5098542;28;20040;-91
2021/06/18 10:04:49;;;;;;;3.33;2.70;;;26.50;99.90;;;;;;5088247;28;20539;-93
2021/06/18 10:07:15;;;;;;;9.10;2.63;;;26.60;99.90;;;;;;5072631;28;20039;-90
2021/06/18 10:09:41;;;;;;;3.50;2.97;;;26.80;99.90;;;;;;5104495;28;20036;-91
2021/06/18 10:12:08;;;;;;;3.33;3.03;;;27.00;99.90;;;;;;5076698;28;20040;-90
2021/06/18 10:14:34;;;;;;;3.28;3.00;;;27.10;99.90;;;;;;5089671;28;20101;-90
2021/06/18 10:17:03;;;;;;;3.72;3.00;;;27.30;99.90;;;;;;5072518;28;20866;-90
2021/06/18 10:19:32;;;;;;;4.55;3.10;;;27.30;99.90;;;;;;5096373;28;20048;-90
2021/06/18 10:22:09;;;;;;;;;;;27.40;99.90;;;;;;5073642;28;20043;-90
2021/06/18 10:24:59;;;;;;;5.53;2.67;;;27.60;99.90;;;;;;5092861;28;19924;-90
2021/06/18 10:27:45;;;;;;;8.27;4.15;;;27.50;99.90;;;;;;5090989;28;20047;-90
2021/06/18 10:30:28;;;;;;;6.28;2.42;;;27.50;99.90;;;;;;5077329;28;20043;-90
2021/06/18 10:32:55;;;;;;;4.95;2.72;;;27.60;99.90;;;;;;5086680;28;20040;-89
2021/06/18 10:35:53;;;;;;;5.35;2.10;;;27.50;99.90;;;;;;5088602;28;20051;-89
2021/06/18 10:38:36;;;;;;;3.17;1.77;;;27.80;99.90;;;;;;5086797;28;20094;-90
2021/06/18 10:41:04;;;;;;;2.53;2.33;;;28.00;99.90;;;;;;5077687;28;20395;-90
2021/06/18 10:43:34;;;;;;;5.05;2.35;;;28.20;99.90;;;;;;5090311;28;20483;-89
2021/06/18 10:46:01;;;;;;;3.38;2.20;;;28.30;99.90;;;;;;5087560;28;20128;-89
2021/06/18 10:48:52;;;;;;;2.03;1.92;;;28.40;99.90;;;;;;5090161;28;20051;-88
2021/06/18 10:51:27;;;;;;;6.18;2.33;;;28.50;99.90;;;;;;5079612;28;20114;-90
2021/06/18 10:53:55;;;;;;;4.15;1.88;;;28.60;99.90;;;;;;5088409;28;20040;-90
2021/06/18 10:56:46;;;;;;;5.32;2.17;;;28.50;99.90;;;;;;5076488;28;20048;-90
2021/06/18 10:59:32;;;;;;;3.17;2.28;;;28.60;99.90;;;;;;5090169;28;20055;-91
2021/06/18 11:02:01;;;;;;;5.68;3.00;;;28.70;99.90;;;;;;5074537;28;20542;-89
2021/06/18 11:04:43;;;;;;;2.85;2.60;;;28.70;99.90;;;;;;5090289;28;20036;-91
2021/06/18 11:07:21;;;;;;;4.75;2.90;;;28.70;99.90;;;;;;5089239;28;20403;-92
2021/06/18 11:09:48;;;;;;;9.65;3.17;;;28.90;99.90;;;;;;5084964;28;20506;-91
2021/06/18 11:12:26;;;;;;;4.72;3.17;;;29.10;99.90;;;;;;5087744;28;20899;-90
2021/06/18 11:14:57;;;;;;;3.65;3.33;;;29.30;99.90;;;;;;5091270;28;20051;-94
2021/06/18 11:18:03;;;;;;;5.90;3.10;;;29.60;99.90;;;;;;5094338;28;20044;-91
2021/06/18 11:20:35;;;;;;;3.03;2.80;;;29.50;99.90;;;;;;5082754;28;20056;-91
2021/06/18 11:23:22;;;;;;;3.42;3.13;;;30.00;99.90;;;;;;5089491;28;20046;-92
2021/06/18 11:25:54;;;;;;;5.28;3.50;;;30.00;99.90;;;;;;5092192;28;20041;-93
2021/06/18 11:28:27;;;;;;;5.03;3.58;;;30.10;99.90;;;;;;5093129;28;20037;-95
2021/06/18 11:30:52;;;;;;;3.47;3.28;;;29.60;99.90;;;;;;5100283;28;20041;-95
2021/06/18 11:33:45;;;;;;;3.78;3.47;;;29.40;99.90;;;;;;5095736;28;20505;-95
2021/06/18 11:36:30;;;;;;;5.35;3.75;;;28.70;99.90;;;;;;5106195;28;20492;-94
2021/06/18 11:38:59;;;;;;;4.22;3.80;;;28.60;99.90;;;;;;5089143;28;20535;-95
2021/06/18 11:41:29;;;;;;;4.78;3.30;;;28.60;99.90;;;;;;5099799;28;20066;-95
2021/06/18 11:44:01;;;;;;;4.18;3.03;;;28.30;99.90;;;;;;5100048;28;20055;-95
2021/06/18 11:46:29;;;;;;;5.57;3.50;;;28.20;99.90;;;;;;5093201;28;20135;-94
2021/06/18 11:48:57;;;;;;;2.53;2.28;;;28.00;99.90;;;;;;5082569;28;20040;-95
2021/06/18 11:51:29;;;;;;;2.97;2.60;;;28.00;99.90;;;;;;5083220;28;20532;-94
2021/06/18 11:53:56;;;;;;;3.15;2.92;;;28.40;99.90;;;;;;5094388;28;20094;-95
2021/06/18 11:56:27;;;;;;;3.55;3.25;;;28.60;99.90;;;;;;5107423;28;20092;-93
2021/06/18 11:58:53;;;;;;;2.75;2.40;;;28.60;99.90;;;;;;5090823;28;20067;-94
2021/06/18 12:01:21;;;;;;;4.20;2.15;;;28.90;99.90;;;;;;5083044;28;20071;-94
2021/06/18 12:03:49;;;;;;;3.13;2.40;;;29.10;99.90;;;;;;5084106;28;20048;-93
2021/06/18 12:06:19;;;;;;;2.50;2.22;;;29.20;99.90;;;;;;5092793;28;20382;-92
2021/06/18 12:09:01;;;;;;;2.10;2.00;;;29.50;99.90;;;;;;5107474;28;20044;-92
2021/06/18 12:11:32;;;;;;;3.00;2.10;;;29.50;99.90;;;;;;5088662;28;20050;-91
2021/06/18 12:13:59;;;;;;;2.63;2.17;;;29.70;99.90;;;;;;5076011;28;20041;-93
2021/06/18 12:16:30;;;;;;;4.85;1.83;;;29.90;99.90;;;;;;5087484;28;20035;-94
2021/06/18 12:19:20;;;;;;;4.55;2.13;;;30.10;99.90;;;;;;5093805;28;20055;-92
2021/06/18 12:22:04;;;;;;;3.15;1.70;;;30.20;99.90;;;;;;5101831;28;20102;-94
2021/06/18 12:24:38;;;;;;;2.83;2.05;;;30.10;99.90;;;;;;5104371;28;20037;-94
2021/06/18 12:27:10;;;;;;;9.52;2.10;;;30.30;99.90;;;;;;5089829;28;20051;-94
2021/06/18 12:29:39;;;;;;;3.53;2.28;;;30.20;99.90;;;;;;5091413;28;20052;-96
2021/06/18 12:32:06;;;;;;;5.25;2.17;;;30.40;99.90;;;;;;5084157;28;20078;-95
2021/06/18 12:34:32;;;;;;;3.53;2.45;;;30.40;99.90;;;;;;5087537;28;20044;-95
2021/06/18 12:37:06;;;;;;;3.80;1.98;;;30.60;99.90;;;;;;5085665;28;20407;-95
2021/06/18 12:39:47;;;;;;;2.60;2.10;;;30.70;99.90;;;;;;5092848;28;20044;-95
2021/06/18 12:42:24;;;;;;;8.27;2.45;;;30.60;99.90;;;;;;5095614;28;20090;-95
2021/06/18 12:45:01;;;;;;;2.78;2.40;;;30.70;99.90;;;;;;5093562;28;20050;-95
2021/06/18 12:47:27;;;;;;;5.63;2.65;;;30.80;99.90;;;;;;5093812;28;20127;-94